Time,TemperatureF,DewpointF,PressureIn,WindDirection,WindDirectionDegrees,WindSpeedMPH,WindSpeedGustMPH,Humidity,HourlyPrecipIn,Conditions,Clouds,dailyrainin,SoftwareType,DateUTC
2013-02-28 00:00:00,37.9,36.6,29.70,WSW,248,0.0,0.0,95,0.00,,OVC060,0.00,VWS V14.01,2013-02-28 05:00:00,
2013-02-28 00:05:00,37.7,36.4,29.70,WSW,246,3.0,5.0,95,0.00,,-RA,0.00,VWS V14.01,2013-02-28 05:05:00,
2013-02-28 00:10:00,38.1,37.1,29.70,WSW,248,3.0,6.0,96,0.00,,-RA,0.00,VWS V14.01,2013-02-28 05:10:00,
2013-02-28 00:15:00,38.4,37.4,29.69,West,265,6.0,7.0,96,0.00,,-RA,0.00,VWS V14.01,2013-02-28 05:15:00,
2013-02-28 00:20:00,38.8,37.5,29.69,WSW,244,6.0,9.0,95,0.00,,-RA,0.00,VWS V14.01,2013-02-28 05:20:00,
2013-02-28 00:25:00,39.6,37.5,29.69,WSW,244,6.0,9.0,92,0.00,,-RA,0.00,VWS V14.01,2013-02-28 05:25:00,
2013-02-28 00:30:00,40.4,37.4,29.69,West,272,4.0,5.0,89,0.00,,-RA,0.00,VWS V14.01,2013-02-28 05:30:00,
2013-02-28 00:35:00,40.7,37.1,29.69,WNW,284,3.0,7.0,87,0.00,,-RA,0.00,VWS V14.01,2013-02-28 05:35:00,
2013-02-28 00:40:00,41.0,37.1,29.69,West,259,4.0,7.0,86,0.00,,-RA,0.00,VWS V14.01,2013-02-28 05:40:00,
2013-02-28 00:45:00,41.3,36.8,29.69,WSW,257,3.0,7.0,84,0.00,,-RA,0.00,VWS V14.01,2013-02-28 05:45:00,
2013-02-28 00:50:00,41.5,37.0,29.69,WSW,250,2.0,7.0,84,0.00,,-RA,0.00,VWS V14.01,2013-02-28 05:50:00,
2013-02-28 00:55:00,41.6,36.5,29.69,West,262,2.0,7.0,82,0.00,,-RA,0.00,VWS V14.01,2013-02-28 05:55:00,
2013-02-28 01:00:00,41.8,36.7,29.69,West,271,2.0,2.0,82,0.00,,OVC070,0.00,VWS V14.01,2013-02-28 06:00:00,
2013-02-28 01:05:00,41.8,36.7,29.69,West,278,0.0,4.0,82,0.00,,OVC070,0.00,VWS V14.01,2013-02-28 06:05:00,
2013-02-28 01:10:00,41.8,36.1,29.69,WSW,253,2.0,4.0,80,0.00,,OVC070,0.00,VWS V14.01,2013-02-28 06:10:00,
2013-02-28 01:15:00,41.8,37.0,29.69,WSW,253,0.0,4.0,83,0.00,,OVC070,0.00,VWS V14.01,2013-02-28 06:15:00,
2013-02-28 01:20:00,41.8,36.4,29.69,WSW,252,3.0,4.0,81,0.00,,OVC070,0.00,VWS V14.01,2013-02-28 06:20:00,
2013-02-28 01:25:00,41.6,36.5,29.69,WSW,245,0.0,4.0,82,0.00,,OVC070,0.00,VWS V14.01,2013-02-28 06:25:00,
2013-02-28 01:30:00,41.6,36.5,29.69,WSW,252,2.0,3.0,82,0.00,,OVC070,0.00,VWS V14.01,2013-02-28 06:30:00,
2013-02-28 01:35:00,41.4,36.6,29.68,WSW,244,3.0,4.0,83,0.00,,OVC070,0.00,VWS V14.01,2013-02-28 06:35:00,
2013-02-28 01:40:00,41.0,36.5,29.68,West,266,1.0,4.0,84,0.00,,OVC070,0.00,VWS V14.01,2013-02-28 06:40:00,
2013-02-28 01:45:00,40.5,36.9,29.68,West,273,2.0,4.0,87,0.00,,OVC070,0.00,VWS V14.01,2013-02-28 06:45:00,
2013-02-28 01:50:00,39.9,36.3,29.68,West,262,4.0,4.0,87,0.00,,OVC070,0.00,VWS V14.01,2013-02-28 06:50:00,
2013-02-28 01:55:00,39.6,35.8,29.68,West,270,1.0,4.0,86,0.00,,OVC070,0.00,VWS V14.01,2013-02-28 06:55:00,
2013-02-28 02:00:00,39.2,35.4,29.68,WNW,283,0.0,2.0,86,0.00,,OVC070,0.00,VWS V14.01,2013-02-28 07:00:00,
2013-02-28 02:05:00,39.2,34.8,29.68,West,281,1.0,2.0,84,0.00,,OVC070,0.00,VWS V14.01,2013-02-28 07:05:00,
2013-02-28 02:10:00,39.2,34.8,29.68,West,273,0.0,3.0,84,0.00,,OVC070,0.00,VWS V14.01,2013-02-28 07:10:00,
2013-02-28 02:15:00,39.0,35.2,29.68,West,273,0.0,3.0,86,0.00,,OVC070,0.00,VWS V14.01,2013-02-28 07:15:00,
2013-02-28 02:20:00,38.9,34.8,29.68,West,273,0.0,3.0,85,0.00,,OVC070,0.00,VWS V14.01,2013-02-28 07:20:00,
2013-02-28 02:25:00,38.7,34.6,29.67,West,273,0.0,3.0,85,0.00,,OVC070,0.00,VWS V14.01,2013-02-28 07:25:00,
2013-02-28 02:30:00,38.3,34.8,29.68,West,273,0.0,0.0,87,0.00,,OVC070,0.00,VWS V14.01,2013-02-28 07:30:00,
2013-02-28 02:35:00,37.9,35.0,29.68,West,273,0.0,0.0,89,0.00,,OVC070,0.00,VWS V14.01,2013-02-28 07:35:00,
2013-02-28 02:40:00,37.5,34.6,29.68,West,273,0.0,0.0,89,0.00,,OVC070,0.00,VWS V14.01,2013-02-28 07:40:00,
2013-02-28 02:45:00,37.3,34.6,29.68,West,273,0.0,0.0,90,0.00,,OVC070,0.00,VWS V14.01,2013-02-28 07:45:00,
2013-02-28 02:50:00,37.0,34.3,29.68,WNW,294,0.0,2.0,90,0.00,,OVC070,0.00,VWS V14.01,2013-02-28 07:50:00,
2013-02-28 02:56:00,36.6,34.0,29.68,WNW,294,2.0,3.0,90,0.00,,OVC070,0.00,VWS V14.01,2013-02-28 07:56:00,
2013-02-28 03:00:00,36.7,33.5,29.68,WNW,300,2.0,3.0,88,0.00,,OVC090,0.00,VWS V14.01,2013-02-28 08:00:00,
2013-02-28 03:05:00,37.2,33.7,29.67,WNW,296,4.0,8.0,87,0.00,,OVC090,0.00,VWS V14.01,2013-02-28 08:05:00,
2013-02-28 03:10:00,37.7,33.6,29.68,NW,304,2.0,8.0,85,0.00,,OVC090,0.00,VWS V14.01,2013-02-28 08:10:00,
2013-02-28 03:15:00,38.3,33.6,29.67,NW,308,2.0,8.0,83,0.00,,OVC090,0.00,VWS V14.01,2013-02-28 08:15:00,
2013-02-28 03:20:00,38.7,33.7,29.67,NW,306,3.0,8.0,82,0.00,,OVC090,0.00,VWS V14.01,2013-02-28 08:20:00,
2013-02-28 03:25:00,38.9,33.6,29.68,NW,304,3.0,8.0,81,0.00,,OVC090,0.00,VWS V14.01,2013-02-28 08:25:00,
2013-02-28 03:30:00,39.3,34.0,29.68,WNW,298,4.0,4.0,81,0.00,,OVC090,0.00,VWS V14.01,2013-02-28 08:30:00,
2013-02-28 03:35:00,39.5,33.8,29.68,WNW,302,2.0,5.0,80,0.00,,OVC090,0.00,VWS V14.01,2013-02-28 08:35:00,
2013-02-28 03:40:00,39.3,34.0,29.68,WNW,294,1.0,5.0,81,0.00,,OVC090,0.00,VWS V14.01,2013-02-28 08:40:00,
2013-02-28 03:45:00,39.1,33.8,29.68,WNW,300,0.0,5.0,81,0.00,,OVC090,0.00,VWS V14.01,2013-02-28 08:45:00,
2013-02-28 03:51:00,39.0,33.7,29.69,WNW,284,8.0,8.0,81,0.00,,OVC090,0.00,VWS V14.01,2013-02-28 08:51:00,
2013-02-28 03:56:00,38.9,33.3,29.69,West,277,2.0,8.0,80,0.00,,OVC090,0.00,VWS V14.01,2013-02-28 08:56:00,
2013-02-28 04:00:00,38.8,33.2,29.69,West,267,7.0,8.0,80,0.00,,BKN049,0.00,VWS V14.01,2013-02-28 09:00:00,
2013-02-28 04:01:00,38.8,33.2,29.69,NW,309,3.0,8.0,80,0.00,,CLR,0.00,VWS V14.01,2013-02-28 09:01:00,
2013-02-28 04:06:00,38.9,33.0,29.69,WNW,292,5.0,8.0,79,0.00,,CLR,0.00,VWS V14.01,2013-02-28 09:06:00,
2013-02-28 04:11:00,39.4,32.8,29.69,NW,317,8.0,16.0,77,0.00,,CLR,0.00,VWS V14.01,2013-02-28 09:11:00,
2013-02-28 04:15:00,39.6,32.7,29.69,West,277,7.0,16.0,76,0.00,,CLR,0.00,VWS V14.01,2013-02-28 09:15:00,
2013-02-28 04:21:00,39.7,32.8,29.69,WNW,292,3.0,16.0,76,0.00,,CLR,0.00,VWS V14.01,2013-02-28 09:21:00,
2013-02-28 04:26:00,39.5,32.6,29.69,NW,325,2.0,16.0,76,0.00,,CLR,0.00,VWS V14.01,2013-02-28 09:26:00,
2013-02-28 04:30:00,39.3,32.4,29.70,NW,319,3.0,6.0,76,0.00,,CLR,0.00,VWS V14.01,2013-02-28 09:30:00,
2013-02-28 04:35:00,39.3,32.0,29.70,West,279,5.0,10.0,75,0.00,,CLR,0.00,VWS V14.01,2013-02-28 09:35:00,
2013-02-28 04:40:00,39.2,32.0,29.70,West,273,6.0,10.0,75,0.00,,CLR,0.00,VWS V14.01,2013-02-28 09:40:00,
2013-02-28 04:45:00,39.1,32.2,29.70,WNW,300,4.0,10.0,76,0.00,,CLR,0.00,VWS V14.01,2013-02-28 09:45:00,
2013-02-28 04:50:00,38.9,32.0,29.70,WNW,301,1.0,10.0,76,0.00,,CLR,0.00,VWS V14.01,2013-02-28 09:50:00,
2013-02-28 04:55:00,38.8,31.9,29.70,NW,317,1.0,10.0,76,0.00,,CLR,0.00,VWS V14.01,2013-02-28 09:55:00,
2013-02-28 05:00:00,38.7,31.8,29.71,WNW,299,2.0,10.0,76,0.00,,BKN049,0.00,VWS V14.01,2013-02-28 10:00:00,
2013-02-28 05:01:00,38.7,31.8,29.71,WNW,299,0.0,2.0,76,0.00,,CLR,0.00,VWS V14.01,2013-02-28 10:01:00,
2013-02-28 05:05:00,38.5,31.9,29.71,WNW,289,2.0,3.0,77,0.00,,CLR,0.00,VWS V14.01,2013-02-28 10:05:00,
2013-02-28 05:11:00,38.3,31.7,29.71,WNW,298,1.0,4.0,77,0.00,,CLR,0.00,VWS V14.01,2013-02-28 10:11:00,
2013-02-28 05:16:00,38.1,31.2,29.71,WNW,297,3.0,4.0,76,0.00,,CLR,0.00,VWS V14.01,2013-02-28 10:16:00,
2013-02-28 05:20:00,38.1,31.2,29.71,WNW,297,0.0,6.0,76,0.00,,CLR,0.00,VWS V14.01,2013-02-28 10:20:00,
2013-02-28 05:26:00,38.0,31.1,29.71,WNW,297,2.0,6.0,76,0.00,,CLR,0.00,VWS V14.01,2013-02-28 10:26:00,
2013-02-28 05:30:00,37.9,30.7,29.71,WNW,292,3.0,5.0,75,0.00,,CLR,0.00,VWS V14.01,2013-02-28 10:30:00,
2013-02-28 05:35:00,38.0,30.8,29.71,WNW,296,3.0,7.0,75,0.00,,CLR,0.00,VWS V14.01,2013-02-28 10:35:00,
2013-02-28 05:40:00,38.2,30.7,29.71,WNW,298,2.0,7.0,74,0.00,,CLR,0.00,VWS V14.01,2013-02-28 10:40:00,
2013-02-28 05:45:00,38.3,30.8,29.72,WNW,298,3.0,10.0,74,0.00,,CLR,0.00,VWS V14.01,2013-02-28 10:45:00,
2013-02-28 05:50:00,38.4,30.2,29.72,NW,315,2.0,10.0,72,0.00,,CLR,0.00,VWS V14.01,2013-02-28 10:50:00,
2013-02-28 05:55:00,38.6,30.4,29.72,NW,304,3.0,10.0,72,0.00,,CLR,0.00,VWS V14.01,2013-02-28 10:55:00,
2013-02-28 06:00:00,38.7,30.1,29.72,West,262,4.0,5.0,71,0.00,,CLR,0.00,VWS V14.01,2013-02-28 11:00:00,
2013-02-28 06:05:00,38.6,29.7,29.72,WNW,298,2.0,8.0,70,0.00,,CLR,0.00,VWS V14.01,2013-02-28 11:05:00,
2013-02-28 06:10:00,38.6,30.4,29.72,WNW,296,5.0,8.0,72,0.00,,CLR,0.00,VWS V14.01,2013-02-28 11:10:00,
2013-02-28 06:15:00,38.6,30.0,29.72,West,267,3.0,9.0,71,0.00,,CLR,0.00,VWS V14.01,2013-02-28 11:15:00,
2013-02-28 06:21:00,38.6,29.7,29.72,West,270,2.0,9.0,70,0.00,,CLR,0.00,VWS V14.01,2013-02-28 11:21:00,
2013-02-28 06:26:00,38.6,29.7,29.72,WSW,254,3.0,9.0,70,0.00,,CLR,0.00,VWS V14.01,2013-02-28 11:26:00,
2013-02-28 06:30:00,38.5,29.6,29.72,WNW,286,2.0,9.0,70,0.00,,BKN049,0.00,VWS V14.01,2013-02-28 11:30:00,
2013-02-28 06:31:00,38.5,29.9,29.72,West,260,1.0,4.0,71,0.00,,CLR,0.00,VWS V14.01,2013-02-28 11:31:00,
2013-02-28 06:36:00,38.3,30.1,29.72,West,273,1.0,6.0,72,0.00,,CLR,0.00,VWS V14.01,2013-02-28 11:36:00,
2013-02-28 06:41:00,38.2,29.6,29.72,West,264,1.0,7.0,71,0.00,,CLR,0.00,VWS V14.01,2013-02-28 11:41:00,
2013-02-28 06:46:00,38.2,29.3,29.72,SW,234,3.0,7.0,70,0.00,,CLR,0.00,VWS V14.01,2013-02-28 11:46:00,
2013-02-28 06:51:00,38.2,29.6,29.72,West,270,3.0,7.0,71,0.00,,CLR,0.00,VWS V14.01,2013-02-28 11:51:00,
2013-02-28 06:56:00,38.0,29.8,29.72,WNW,290,2.0,7.0,72,0.00,,CLR,0.00,VWS V14.01,2013-02-28 11:56:00,
2013-02-28 07:00:00,37.9,29.7,29.72,West,281,2.0,7.0,72,0.00,,BKN049,0.00,VWS V14.01,2013-02-28 12:00:00,
2013-02-28 07:01:00,37.8,29.6,29.72,WNW,296,1.0,3.0,72,0.00,,CLR,0.00,VWS V14.01,2013-02-28 12:01:00,
2013-02-28 07:06:00,37.7,29.5,29.72,WNW,294,2.0,4.0,72,0.00,,CLR,0.00,VWS V14.01,2013-02-28 12:06:00,
2013-02-28 07:11:00,37.6,29.7,29.72,West,265,0.0,5.0,73,0.00,,CLR,0.00,VWS V14.01,2013-02-28 12:11:00,
2013-02-28 07:16:00,37.5,29.6,29.72,West,259,2.0,5.0,73,0.00,,CLR,0.00,VWS V14.01,2013-02-28 12:16:00,
2013-02-28 07:21:00,37.4,29.5,29.72,West,265,1.0,5.0,73,0.00,,CLR,0.00,VWS V14.01,2013-02-28 12:21:00,
2013-02-28 07:26:00,37.1,30.2,29.72,WNW,290,2.0,5.0,76,0.00,,CLR,0.00,VWS V14.01,2013-02-28 12:26:00,
2013-02-28 07:30:00,36.9,29.7,29.72,West,281,3.0,5.0,75,0.00,,BKN049,0.00,VWS V14.01,2013-02-28 12:30:00,
2013-02-28 07:31:00,36.9,29.7,29.72,WNW,300,1.0,5.0,75,0.00,,CLR,0.00,VWS V14.01,2013-02-28 12:31:00,
2013-02-28 07:36:00,37.4,29.9,29.73,West,263,1.0,5.0,74,0.00,,CLR,0.00,VWS V14.01,2013-02-28 12:36:00,
2013-02-28 07:41:00,37.8,30.3,29.73,WSW,240,1.0,5.0,74,0.00,,CLR,0.00,VWS V14.01,2013-02-28 12:41:00,
2013-02-28 07:46:00,38.0,30.1,29.73,West,278,1.0,5.0,73,0.00,,CLR,0.00,VWS V14.01,2013-02-28 12:46:00,
2013-02-28 07:51:00,38.3,30.4,29.73,West,259,2.0,5.0,73,0.00,,CLR,0.00,VWS V14.01,2013-02-28 12:51:00,
2013-02-28 07:56:00,38.7,30.5,29.73,West,261,3.0,5.0,72,0.00,,CLR,0.00,VWS V14.01,2013-02-28 12:56:00,
2013-02-28 08:00:00,39.0,30.8,29.73,WSW,252,5.0,8.0,72,0.00,,FEW044,0.00,VWS V14.01,2013-02-28 13:00:00,
2013-02-28 08:01:00,39.1,30.2,29.73,West,267,3.0,7.0,70,0.00,,CLR,0.00,VWS V14.01,2013-02-28 13:01:00,
2013-02-28 08:06:00,39.3,31.0,29.73,West,259,1.0,7.0,72,0.00,,CLR,0.00,VWS V14.01,2013-02-28 13:06:00,
2013-02-28 08:11:00,39.6,31.0,29.73,WNW,287,5.0,7.0,71,0.00,,CLR,0.00,VWS V14.01,2013-02-28 13:11:00,
2013-02-28 08:16:00,39.8,31.9,29.73,West,273,3.0,7.0,73,0.00,,CLR,0.00,VWS V14.01,2013-02-28 13:16:00,
2013-02-28 08:21:00,40.0,31.0,29.74,West,265,4.0,7.0,70,0.00,,CLR,0.00,VWS V14.01,2013-02-28 13:21:00,
2013-02-28 08:26:00,40.2,31.6,29.74,WSW,247,4.0,7.0,71,0.00,,CLR,0.00,VWS V14.01,2013-02-28 13:26:00,
2013-02-28 08:30:00,40.3,32.3,29.74,West,275,5.0,9.0,73,0.00,,FEW044,0.00,VWS V14.01,2013-02-28 13:30:00,
2013-02-28 08:31:00,40.4,31.8,29.74,WSW,253,4.0,5.0,71,0.00,,CLR,0.00,VWS V14.01,2013-02-28 13:31:00,
2013-02-28 08:36:00,40.4,31.4,29.74,WNW,302,5.0,7.0,70,0.00,,CLR,0.00,VWS V14.01,2013-02-28 13:36:00,
2013-02-28 08:41:00,40.6,31.6,29.73,West,265,1.0,8.0,70,0.00,,CLR,0.00,VWS V14.01,2013-02-28 13:41:00,
2013-02-28 08:46:00,40.7,30.6,29.74,West,277,4.0,8.0,67,0.00,,CLR,0.00,VWS V14.01,2013-02-28 13:46:00,
2013-02-28 08:51:00,40.8,30.7,29.74,West,275,4.0,11.0,67,0.00,,CLR,0.00,VWS V14.01,2013-02-28 13:51:00,
2013-02-28 08:56:00,40.9,31.2,29.74,WSW,252,2.0,11.0,68,0.00,,CLR,0.00,VWS V14.01,2013-02-28 13:56:00,
2013-02-28 09:00:00,41.0,32.0,29.74,WNW,287,2.0,11.0,70,0.00,,FEW044,0.00,VWS V14.01,2013-02-28 14:00:00,
2013-02-28 09:01:00,41.1,32.1,29.74,WNW,299,4.0,6.0,70,0.00,,CLR,0.00,VWS V14.01,2013-02-28 14:01:00,
2013-02-28 09:06:00,41.2,31.8,29.74,WSW,240,6.0,9.0,69,0.00,,CLR,0.00,VWS V14.01,2013-02-28 14:06:00,
2013-02-28 09:11:00,41.4,31.3,29.73,NW,306,4.0,11.0,67,0.00,,CLR,0.00,VWS V14.01,2013-02-28 14:11:00,
2013-02-28 09:16:00,41.5,31.4,29.73,West,274,5.0,12.0,67,0.00,,CLR,0.00,VWS V14.01,2013-02-28 14:16:00,
2013-02-28 09:21:00,41.7,30.8,29.74,WSW,248,11.0,14.0,65,0.00,,CLR,0.00,VWS V14.01,2013-02-28 14:21:00,
2013-02-28 09:26:00,41.6,31.5,29.73,West,273,7.0,14.0,67,0.00,,CLR,0.00,VWS V14.01,2013-02-28 14:26:00,
2013-02-28 09:30:00,41.7,31.6,29.73,NW,307,4.0,14.0,67,0.00,,FEW044,0.00,VWS V14.01,2013-02-28 14:30:00,
2013-02-28 09:31:00,41.7,31.2,29.73,WNW,296,3.0,9.0,66,0.00,,CLR,0.00,VWS V14.01,2013-02-28 14:31:00,
2013-02-28 09:36:00,41.8,31.7,29.74,WSW,254,6.0,9.0,67,0.00,,CLR,0.00,VWS V14.01,2013-02-28 14:36:00,
2013-02-28 09:41:00,42.1,33.0,29.74,WNW,286,2.0,10.0,70,0.00,,CLR,0.00,VWS V14.01,2013-02-28 14:41:00,
2013-02-28 09:46:00,42.2,31.7,29.74,SW,225,8.0,12.0,66,0.00,,CLR,0.00,VWS V14.01,2013-02-28 14:46:00,
2013-02-28 09:51:00,42.2,31.7,29.74,WSW,252,6.0,13.0,66,0.00,,CLR,0.00,VWS V14.01,2013-02-28 14:51:00,
2013-02-28 09:56:00,42.1,31.6,29.74,NW,309,2.0,13.0,66,0.00,,CLR,0.00,VWS V14.01,2013-02-28 14:56:00,
2013-02-28 10:00:00,42.5,32.3,29.74,WNW,286,4.0,13.0,67,0.00,,FEW044,0.00,VWS V14.01,2013-02-28 15:00:00,
2013-02-28 10:01:00,42.8,33.3,29.74,WNW,292,4.0,11.0,69,0.00,,OVC065,0.00,VWS V14.01,2013-02-28 15:01:00,
2013-02-28 10:06:00,43.0,33.2,29.74,West,261,5.0,11.0,68,0.00,,OVC065,0.00,VWS V14.01,2013-02-28 15:06:00,
2013-02-28 10:11:00,43.2,32.2,29.74,West,259,10.0,13.0,65,0.00,,OVC065,0.00,VWS V14.01,2013-02-28 15:11:00,
2013-02-28 10:16:00,42.9,32.0,29.74,SW,232,14.0,15.0,65,0.00,,OVC065,0.00,VWS V14.01,2013-02-28 15:16:00,
2013-02-28 10:21:00,42.8,31.1,29.74,SW,220,8.0,16.0,63,0.00,,OVC065,0.00,VWS V14.01,2013-02-28 15:21:00,
2013-02-28 10:26:00,43.1,31.0,29.74,West,270,7.0,16.0,62,0.00,,OVC065,0.00,VWS V14.01,2013-02-28 15:26:00,
2013-02-28 10:30:00,43.0,30.9,29.74,West,261,3.0,16.0,62,0.00,,FEW044,0.00,VWS V14.01,2013-02-28 15:30:00,
2013-02-28 10:31:00,43.1,31.8,29.74,WNW,293,3.0,5.0,64,0.00,,OVC065,0.00,VWS V14.01,2013-02-28 15:31:00,
2013-02-28 10:36:00,43.4,31.3,29.74,NW,314,2.0,10.0,62,0.00,,OVC065,0.00,VWS V14.01,2013-02-28 15:36:00,
2013-02-28 10:41:00,43.8,32.0,29.74,NW,310,3.0,10.0,63,0.00,,OVC065,0.00,VWS V14.01,2013-02-28 15:41:00,
2013-02-28 10:46:00,44.0,31.4,29.74,WNW,284,3.0,10.0,61,0.00,,OVC065,0.00,VWS V14.01,2013-02-28 15:46:00,
2013-02-28 10:51:00,44.0,31.8,29.74,NW,317,5.0,10.0,62,0.00,,OVC065,0.00,VWS V14.01,2013-02-28 15:51:00,
2013-02-28 10:56:00,43.8,30.0,29.74,West,267,4.0,13.0,58,0.00,,OVC065,0.00,VWS V14.01,2013-02-28 15:56:00,
2013-02-28 11:00:00,43.5,29.3,29.74,West,277,5.0,13.0,57,0.00,,FEW044,0.00,VWS V14.01,2013-02-28 16:00:00,
2013-02-28 11:01:00,43.4,30.0,29.74,WSW,247,11.0,11.0,59,0.00,,OVC065,0.00,VWS V14.01,2013-02-28 16:01:00,
2013-02-28 11:06:00,43.4,29.6,29.74,WNW,291,5.0,12.0,58,0.00,,OVC065,0.00,VWS V14.01,2013-02-28 16:06:00,
2013-02-28 11:11:00,43.5,27.5,29.74,NW,307,7.0,15.0,53,0.00,,OVC065,0.00,VWS V14.01,2013-02-28 16:11:00,
2013-02-28 11:16:00,43.4,28.3,29.74,NW,310,9.0,16.0,55,0.00,,OVC065,0.00,VWS V14.01,2013-02-28 16:16:00,
2013-02-28 11:21:00,43.4,28.3,29.74,WNW,296,7.0,16.0,55,0.00,,OVC065,0.00,VWS V14.01,2013-02-28 16:21:00,
2013-02-28 11:26:00,43.5,27.5,29.75,WSW,253,7.0,16.0,53,0.00,,OVC065,0.00,VWS V14.01,2013-02-28 16:26:00,
2013-02-28 11:30:00,43.5,28.4,29.75,WNW,296,8.0,16.0,55,0.00,,FEW044,0.00,VWS V14.01,2013-02-28 16:30:00,
2013-02-28 11:31:00,43.5,28.0,29.75,West,273,13.0,14.0,54,0.00,,OVC065,0.00,VWS V14.01,2013-02-28 16:31:00,
2013-02-28 11:36:00,43.5,28.9,29.75,SW,230,7.0,16.0,56,0.00,,OVC065,0.00,VWS V14.01,2013-02-28 16:36:00,
2013-02-28 11:41:00,43.9,30.1,29.74,West,262,6.0,16.0,58,0.00,,OVC065,0.00,VWS V14.01,2013-02-28 16:41:00,
2013-02-28 11:46:00,44.7,29.5,29.75,WSW,245,8.0,16.0,55,0.00,,OVC065,0.00,VWS V14.01,2013-02-28 16:46:00,
2013-02-28 11:51:00,44.3,27.8,29.75,West,269,7.0,20.0,52,0.00,,OVC065,0.00,VWS V14.01,2013-02-28 16:51:00,
2013-02-28 11:56:00,44.0,28.4,29.74,NW,318,4.0,20.0,54,0.00,,OVC065,0.00,VWS V14.01,2013-02-28 16:56:00,
2013-02-28 12:00:00,43.9,27.9,29.74,WNW,290,4.0,20.0,53,0.00,,FEW044,0.00,VWS V14.01,2013-02-28 17:00:00,
2013-02-28 12:01:00,43.9,28.4,29.74,WNW,282,6.0,7.0,54,0.00,,OVC070,0.00,VWS V14.01,2013-02-28 17:01:00,
2013-02-28 12:06:00,44.1,29.0,29.74,WSW,244,9.0,13.0,55,0.00,,OVC070,0.00,VWS V14.01,2013-02-28 17:06:00,
2013-02-28 12:11:00,44.3,28.3,29.74,WNW,294,9.0,15.0,53,0.00,,OVC070,0.00,VWS V14.01,2013-02-28 17:11:00,
2013-02-28 12:16:00,44.0,27.0,29.74,WSW,242,13.0,18.0,51,0.00,,OVC070,0.00,VWS V14.01,2013-02-28 17:16:00,
2013-02-28 12:21:00,44.0,29.3,29.74,NW,306,4.0,18.0,56,0.00,,OVC070,0.00,VWS V14.01,2013-02-28 17:21:00,
2013-02-28 12:26:00,44.0,27.0,29.74,NW,305,5.0,18.0,51,0.00,,OVC070,0.00,VWS V14.01,2013-02-28 17:26:00,
2013-02-28 12:30:00,43.9,27.9,29.74,NW,310,7.0,18.0,53,0.00,,FEW044,0.00,VWS V14.01,2013-02-28 17:30:00,
2013-02-28 12:31:00,43.8,28.2,29.74,WNW,288,8.0,10.0,54,0.00,,OVC070,0.00,VWS V14.01,2013-02-28 17:31:00,
2013-02-28 12:36:00,44.0,27.5,29.73,NW,319,5.0,12.0,52,0.00,,OVC070,0.00,VWS V14.01,2013-02-28 17:36:00,
2013-02-28 12:41:00,44.2,27.7,29.73,WNW,298,7.0,16.0,52,0.00,,OVC070,0.00,VWS V14.01,2013-02-28 17:41:00,
2013-02-28 12:46:00,44.5,27.5,29.73,NW,317,6.0,17.0,51,0.00,,OVC070,0.00,VWS V14.01,2013-02-28 17:46:00,
2013-02-28 12:51:00,44.9,28.8,29.73,WSW,240,11.0,17.0,53,0.00,,OVC070,0.00,VWS V14.01,2013-02-28 17:51:00,
2013-02-28 12:56:00,45.0,27.0,29.73,West,269,10.0,19.0,49,0.00,,OVC070,0.00,VWS V14.01,2013-02-28 17:56:00,
2013-02-28 13:00:00,44.6,26.6,29.73,NW,317,4.0,21.0,49,0.00,,FEW044,0.00,VWS V14.01,2013-02-28 18:00:00,
2013-02-28 13:01:00,44.7,27.7,29.73,WNW,294,10.0,10.0,51,0.00,,BKN070,0.00,VWS V14.01,2013-02-28 18:01:00,
2013-02-28 13:06:00,44.4,26.5,29.73,NW,305,11.0,11.0,49,0.00,,BKN070,0.00,VWS V14.01,2013-02-28 18:06:00,
2013-02-28 13:11:00,44.3,26.4,29.72,WNW,296,7.0,16.0,49,0.00,,BKN070,0.00,VWS V14.01,2013-02-28 18:11:00,
2013-02-28 13:16:00,44.5,27.0,29.72,NNW,333,8.0,20.0,50,0.00,,BKN070,0.00,VWS V14.01,2013-02-28 18:16:00,
2013-02-28 13:21:00,45.0,27.0,29.72,WNW,295,8.0,20.0,49,0.00,,BKN070,0.00,VWS V14.01,2013-02-28 18:21:00,
2013-02-28 13:26:00,44.8,27.3,29.73,NNW,336,5.0,20.0,50,0.00,,BKN070,0.00,VWS V14.01,2013-02-28 18:26:00,
2013-02-28 13:30:00,44.7,28.2,29.73,WNW,282,9.0,20.0,52,0.00,,FEW044,0.00,VWS V14.01,2013-02-28 18:30:00,
2013-02-28 13:31:00,44.9,27.9,29.73,WNW,297,9.0,14.0,51,0.00,,BKN070,0.00,VWS V14.01,2013-02-28 18:31:00,
2013-02-28 13:36:00,45.0,27.5,29.73,WNW,290,5.0,19.0,50,0.00,,BKN070,0.00,VWS V14.01,2013-02-28 18:36:00,
2013-02-28 13:41:00,45.4,29.7,29.73,SSW,213,10.0,19.0,54,0.00,,BKN070,0.00,VWS V14.01,2013-02-28 18:41:00,
2013-02-28 13:46:00,45.2,27.2,29.73,WSW,239,13.0,19.0,49,0.00,,BKN070,0.00,VWS V14.01,2013-02-28 18:46:00,
2013-02-28 13:51:00,44.8,27.8,29.73,WNW,284,3.0,19.0,51,0.00,,BKN070,0.00,VWS V14.01,2013-02-28 18:51:00,
2013-02-28 13:56:00,44.7,27.7,29.73,WNW,292,6.0,19.0,51,0.00,,BKN070,0.00,VWS V14.01,2013-02-28 18:56:00,
2013-02-28 14:00:00,44.8,28.3,29.73,West,259,8.0,19.0,52,0.00,,FEW044,0.00,VWS V14.01,2013-02-28 19:00:00,
2013-02-28 14:01:00,44.9,28.4,29.73,West,274,7.0,12.0,52,0.00,,OVC065,0.00,VWS V14.01,2013-02-28 19:01:00,
2013-02-28 14:06:00,44.7,27.2,29.73,WSW,252,9.0,15.0,50,0.00,,OVC065,0.00,VWS V14.01,2013-02-28 19:06:00,
2013-02-28 14:11:00,44.7,27.7,29.73,WSW,243,8.0,15.0,51,0.00,,OVC065,0.00,VWS V14.01,2013-02-28 19:11:00,
2013-02-28 14:16:00,44.6,27.1,29.73,NNW,330,4.0,15.0,50,0.00,,OVC065,0.00,VWS V14.01,2013-02-28 19:16:00,
2013-02-28 14:21:00,44.8,27.8,29.73,NW,306,6.0,15.0,51,0.00,,OVC065,0.00,VWS V14.01,2013-02-28 19:21:00,
2013-02-28 14:26:00,44.8,27.3,29.73,West,272,16.0,16.0,50,0.00,,OVC065,0.00,VWS V14.01,2013-02-28 19:26:00,
2013-02-28 14:30:00,45.0,27.5,29.73,NW,316,7.0,16.0,50,0.00,,FEW044,0.00,VWS V14.01,2013-02-28 19:30:00,
2013-02-28 14:31:00,45.2,28.2,29.73,West,278,8.0,11.0,51,0.00,,OVC065,0.00,VWS V14.01,2013-02-28 19:31:00,
2013-02-28 14:36:00,45.9,27.8,29.73,WSW,254,11.0,14.0,49,0.00,,OVC065,0.00,VWS V14.01,2013-02-28 19:36:00,
2013-02-28 14:41:00,46.3,28.7,29.73,West,276,5.0,18.0,50,0.00,,OVC065,0.00,VWS V14.01,2013-02-28 19:41:00,
2013-02-28 14:46:00,46.9,28.2,29.73,WSW,241,17.0,18.0,48,0.00,,OVC065,0.00,VWS V14.01,2013-02-28 19:46:00,
2013-02-28 14:51:00,46.5,27.9,29.73,WNW,302,11.0,18.0,48,0.00,,OVC065,0.00,VWS V14.01,2013-02-28 19:51:00,
2013-02-28 14:56:00,47.0,28.9,29.73,WNW,292,6.0,18.0,49,0.00,,OVC065,0.00,VWS V14.01,2013-02-28 19:56:00,
2013-02-28 15:00:00,47.0,26.8,29.73,WNW,283,4.0,18.0,45,0.00,,FEW044,0.00,VWS V14.01,2013-02-28 20:00:00,
2013-02-28 15:01:00,46.7,27.6,29.74,West,275,4.0,10.0,47,0.00,,OVC060,0.00,VWS V14.01,2013-02-28 20:01:00,
2013-02-28 15:06:00,46.9,27.7,29.74,WSW,238,5.0,15.0,47,0.00,,OVC060,0.00,VWS V14.01,2013-02-28 20:06:00,
2013-02-28 15:11:00,46.9,27.7,29.73,West,278,8.0,16.0,47,0.00,,OVC060,0.00,VWS V14.01,2013-02-28 20:11:00,
2013-02-28 15:16:00,46.1,27.0,29.74,WNW,291,5.0,16.0,47,0.00,,OVC060,0.00,VWS V14.01,2013-02-28 20:16:00,
2013-02-28 15:21:00,45.7,27.1,29.74,NNW,336,4.0,16.0,48,0.00,,OVC060,0.00,VWS V14.01,2013-02-28 20:21:00,
2013-02-28 15:26:00,46.2,28.6,29.74,WNW,288,5.0,16.0,50,0.00,,OVC060,0.00,VWS V14.01,2013-02-28 20:26:00,
2013-02-28 15:30:00,46.8,29.6,29.74,SW,220,12.0,16.0,51,0.00,,FEW044,0.00,VWS V14.01,2013-02-28 20:30:00,
2013-02-28 15:31:00,46.8,26.6,29.74,WNW,298,8.0,14.0,45,0.00,,OVC060,0.00,VWS V14.01,2013-02-28 20:31:00,
2013-02-28 15:36:00,46.5,26.9,29.74,WNW,300,7.0,14.0,46,0.00,,OVC060,0.00,VWS V14.01,2013-02-28 20:36:00,
2013-02-28 15:41:00,46.3,26.7,29.74,WNW,300,3.0,14.0,46,0.00,,OVC060,0.00,VWS V14.01,2013-02-28 20:41:00,
2013-02-28 15:46:00,45.8,26.7,29.74,NW,307,3.0,14.0,47,0.00,,OVC060,0.00,VWS V14.01,2013-02-28 20:46:00,
2013-02-28 15:51:00,45.4,27.4,29.74,NNW,330,4.0,14.0,49,0.00,,OVC060,0.00,VWS V14.01,2013-02-28 20:51:00,
2013-02-28 15:56:00,45.0,27.0,29.74,West,280,8.0,18.0,49,0.00,,OVC060,0.00,VWS V14.01,2013-02-28 20:56:00,
2013-02-28 16:00:00,44.8,27.3,29.74,WNW,300,3.0,18.0,50,0.00,,FEW044,0.00,VWS V14.01,2013-02-28 21:00:00,
2013-02-28 16:01:00,44.8,27.3,29.74,West,275,8.0,10.0,50,0.00,,OVC060,0.00,VWS V14.01,2013-02-28 21:01:00,
2013-02-28 16:07:00,44.5,27.0,29.74,WNW,282,5.0,13.0,50,0.00,,OVC060,0.00,VWS V14.01,2013-02-28 21:07:00,
2013-02-28 16:12:00,44.2,27.2,29.75,West,259,8.0,13.0,51,0.00,,OVC060,0.00,VWS V14.01,2013-02-28 21:12:00,
2013-02-28 16:17:00,44.2,27.2,29.74,WSW,254,6.0,13.0,51,0.00,,OVC060,0.00,VWS V14.01,2013-02-28 21:17:00,
2013-02-28 16:22:00,44.2,27.2,29.74,WSW,244,11.0,14.0,51,0.00,,OVC060,0.00,VWS V14.01,2013-02-28 21:22:00,
2013-02-28 16:27:00,44.1,27.1,29.74,WSW,240,5.0,16.0,51,0.00,,OVC060,0.00,VWS V14.01,2013-02-28 21:27:00,
2013-02-28 16:30:00,44.2,27.2,29.74,West,281,9.0,16.0,51,0.00,,FEW044,0.00,VWS V14.01,2013-02-28 21:30:00,
2013-02-28 16:32:00,44.2,27.2,29.74,West,273,4.0,9.0,51,0.00,,OVC060,0.00,VWS V14.01,2013-02-28 21:32:00,
2013-02-28 16:37:00,44.0,27.5,29.75,WSW,252,8.0,11.0,52,0.00,,OVC060,0.00,VWS V14.01,2013-02-28 21:37:00,
2013-02-28 16:42:00,44.0,28.0,29.75,WNW,294,5.0,11.0,53,0.00,,OVC060,0.00,VWS V14.01,2013-02-28 21:42:00,
2013-02-28 16:47:00,44.7,28.2,29.75,NW,309,5.0,11.0,52,0.00,,OVC060,0.00,VWS V14.01,2013-02-28 21:47:00,
2013-02-28 16:52:00,45.1,27.6,29.75,WNW,293,4.0,18.0,50,0.00,,OVC060,0.00,VWS V14.01,2013-02-28 21:52:00,
2013-02-28 16:57:00,44.9,27.9,29.75,WSW,257,19.0,19.0,51,0.00,,OVC060,0.00,VWS V14.01,2013-02-28 21:57:00,
2013-02-28 17:00:00,44.6,27.6,29.75,WNW,291,3.0,19.0,51,0.00,,FEW044,0.00,VWS V14.01,2013-02-28 22:00:00,
2013-02-28 17:02:00,44.5,27.5,29.75,NNW,338,5.0,9.0,51,0.00,,CLR,0.00,VWS V14.01,2013-02-28 22:02:00,
2013-02-28 17:07:00,44.6,28.1,29.75,WNW,300,3.0,10.0,52,0.00,,CLR,0.00,VWS V14.01,2013-02-28 22:07:00,
2013-02-28 17:12:00,45.1,28.5,29.76,WNW,294,3.0,10.0,52,0.00,,CLR,0.00,VWS V14.01,2013-02-28 22:12:00,
2013-02-28 17:17:00,45.6,29.0,29.76,WSW,258,15.0,19.0,52,0.00,,CLR,0.00,VWS V14.01,2013-02-28 22:17:00,
2013-02-28 17:22:00,44.8,28.3,29.77,WNW,293,7.0,19.0,52,0.00,,CLR,0.00,VWS V14.01,2013-02-28 22:22:00,
2013-02-28 17:27:00,44.2,28.2,29.77,NW,315,4.0,19.0,53,0.00,,CLR,0.00,VWS V14.01,2013-02-28 22:27:00,
2013-02-28 17:30:00,43.9,28.4,29.77,West,262,7.0,19.0,54,0.00,,FEW044,0.00,VWS V14.01,2013-02-28 22:30:00,
2013-02-28 17:32:00,43.5,28.4,29.78,West,268,3.0,12.0,55,0.00,,CLR,0.00,VWS V14.01,2013-02-28 22:32:00,
2013-02-28 17:37:00,43.0,28.0,29.78,West,268,6.0,12.0,55,0.00,,CLR,0.00,VWS V14.01,2013-02-28 22:37:00,
2013-02-28 17:42:00,42.7,28.1,29.78,WNW,298,7.0,12.0,56,0.00,,CLR,0.00,VWS V14.01,2013-02-28 22:42:00,
2013-02-28 17:47:00,42.5,27.9,29.78,WNW,300,6.0,12.0,56,0.00,,CLR,0.00,VWS V14.01,2013-02-28 22:47:00,
2013-02-28 17:52:00,42.4,28.3,29.78,West,259,7.0,12.0,57,0.00,,CLR,0.00,VWS V14.01,2013-02-28 22:52:00,
2013-02-28 17:57:00,42.3,28.2,29.78,NW,315,2.0,12.0,57,0.00,,CLR,0.00,VWS V14.01,2013-02-28 22:57:00,
2013-02-28 18:00:00,42.2,28.1,29.78,WNW,296,4.0,12.0,57,0.00,,FEW044,0.00,VWS V14.01,2013-02-28 23:00:00,
2013-02-28 18:02:00,42.1,28.4,29.79,West,274,8.0,10.0,58,0.00,,FEW060,0.00,VWS V14.01,2013-02-28 23:02:00,
2013-02-28 18:07:00,41.8,29.0,29.79,West,271,4.0,10.0,60,0.00,,FEW060,0.00,VWS V14.01,2013-02-28 23:07:00,
2013-02-28 18:12:00,41.6,28.4,29.79,WSW,238,14.0,14.0,59,0.00,,FEW060,0.00,VWS V14.01,2013-02-28 23:12:00,
2013-02-28 18:17:00,41.6,28.4,29.79,WSW,240,11.0,15.0,59,0.00,,FEW060,0.00,VWS V14.01,2013-02-28 23:17:00,
2013-02-28 18:22:00,41.5,28.3,29.80,West,271,3.0,16.0,59,0.00,,FEW060,0.00,VWS V14.01,2013-02-28 23:22:00,
2013-02-28 18:27:00,41.4,29.0,29.80,West,280,3.0,16.0,61,0.00,,FEW060,0.00,VWS V14.01,2013-02-28 23:27:00,
2013-02-28 18:30:00,41.4,28.2,29.80,West,279,5.0,16.0,59,0.00,,FEW044,0.00,VWS V14.01,2013-02-28 23:30:00,
2013-02-28 18:32:00,41.3,28.9,29.80,WNW,294,3.0,8.0,61,0.00,,FEW060,0.00,VWS V14.01,2013-02-28 23:32:00,
2013-02-28 18:37:00,41.2,28.4,29.81,West,271,10.0,15.0,60,0.00,,FEW060,0.00,VWS V14.01,2013-02-28 23:37:00,
2013-02-28 18:42:00,41.1,28.3,29.81,West,281,2.0,15.0,60,0.00,,FEW060,0.00,VWS V14.01,2013-02-28 23:42:00,
2013-02-28 18:47:00,41.0,28.6,29.81,West,263,4.0,15.0,61,0.00,,FEW060,0.00,VWS V14.01,2013-02-28 23:47:00,
2013-02-28 18:52:00,40.9,28.5,29.81,West,261,6.0,15.0,61,0.00,,FEW060,0.00,VWS V14.01,2013-02-28 23:52:00,
2013-02-28 18:57:00,40.7,28.3,29.81,WSW,258,7.0,15.0,61,0.00,,FEW060,0.00,VWS V14.01,2013-02-28 23:57:00,
2013-02-28 19:00:00,40.7,28.7,29.81,WSW,242,8.0,15.0,62,0.00,,FEW044,0.00,VWS V14.01,2013-03-01 00:00:00,
2013-02-28 19:02:00,40.6,28.6,29.81,WNW,298,2.0,9.0,62,0.00,,CLR,0.00,VWS V14.01,2013-03-01 00:02:00,
2013-02-28 19:07:00,40.4,28.8,29.81,WNW,284,9.0,14.0,63,0.00,,CLR,0.00,VWS V14.01,2013-03-01 00:07:00,
2013-02-28 19:12:00,40.2,28.6,29.81,WNW,296,6.0,14.0,63,0.00,,CLR,0.00,VWS V14.01,2013-03-01 00:12:00,
2013-02-28 19:17:00,40.1,28.5,29.82,WSW,248,6.0,14.0,63,0.00,,CLR,0.00,VWS V14.01,2013-03-01 00:17:00,
2013-02-28 19:22:00,40.0,28.8,29.82,West,272,6.0,14.0,64,0.00,,CLR,0.00,VWS V14.01,2013-03-01 00:22:00,
2013-02-28 19:27:00,39.8,29.0,29.82,WSW,248,4.0,14.0,65,0.00,,CLR,0.00,VWS V14.01,2013-03-01 00:27:00,
2013-02-28 19:30:00,39.8,28.6,29.82,WSW,254,7.0,14.0,64,0.00,,FEW044,0.00,VWS V14.01,2013-03-01 00:30:00,
2013-02-28 19:32:00,39.7,28.9,29.82,West,269,6.0,8.0,65,0.00,,CLR,0.00,VWS V14.01,2013-03-01 00:32:00,
2013-02-28 19:37:00,39.7,28.9,29.82,WNW,292,3.0,10.0,65,0.00,,CLR,0.00,VWS V14.01,2013-03-01 00:37:00,
2013-02-28 19:42:00,39.7,28.9,29.82,West,266,5.0,14.0,65,0.00,,CLR,0.00,VWS V14.01,2013-03-01 00:42:00,
2013-02-28 19:47:00,39.6,28.8,29.82,WSW,246,7.0,14.0,65,0.00,,CLR,0.00,VWS V14.01,2013-03-01 00:47:00,
2013-02-28 19:52:00,39.7,28.9,29.82,West,261,4.0,14.0,65,0.00,,CLR,0.00,VWS V14.01,2013-03-01 00:52:00,
2013-02-28 19:58:00,39.7,29.3,29.82,WNW,285,2.0,14.0,66,0.00,,CLR,0.00,VWS V14.01,2013-03-01 00:58:00,
2013-02-28 20:00:00,39.6,29.2,29.82,WNW,290,7.0,14.0,66,0.00,,FEW044,0.00,VWS V14.01,2013-03-01 01:00:00,
2013-02-28 20:03:00,39.7,28.9,29.82,NW,309,3.0,11.0,65,0.00,,CLR,0.00,VWS V14.01,2013-03-01 01:03:00,
2013-02-28 20:08:00,39.6,29.2,29.82,WNW,283,5.0,11.0,66,0.00,,CLR,0.00,VWS V14.01,2013-03-01 01:08:00,
2013-02-28 20:13:00,39.5,29.1,29.82,West,276,4.0,11.0,66,0.00,,CLR,0.00,VWS V14.01,2013-03-01 01:13:00,
2013-02-28 20:18:00,39.4,29.0,29.82,West,277,4.0,11.0,66,0.00,,CLR,0.00,VWS V14.01,2013-03-01 01:18:00,
2013-02-28 20:23:00,39.5,29.1,29.82,WSW,242,5.0,11.0,66,0.00,,CLR,0.00,VWS V14.01,2013-03-01 01:23:00,
2013-02-28 20:28:00,39.5,29.1,29.82,WNW,299,3.0,11.0,66,0.00,,CLR,0.00,VWS V14.01,2013-03-01 01:28:00,
2013-02-28 20:30:00,39.5,29.1,29.82,SW,227,4.0,11.0,66,0.00,,FEW044,0.00,VWS V14.01,2013-03-01 01:30:00,
2013-02-28 20:33:00,39.4,29.4,29.82,SW,236,6.0,10.0,67,0.00,,CLR,0.00,VWS V14.01,2013-03-01 01:33:00,
2013-02-28 20:38:00,39.4,29.0,29.82,WNW,285,4.0,10.0,66,0.00,,CLR,0.00,VWS V14.01,2013-03-01 01:38:00,
2013-02-28 20:43:00,39.3,29.3,29.82,WNW,298,3.0,10.0,67,0.00,,CLR,0.00,VWS V14.01,2013-03-01 01:43:00,
2013-02-28 20:48:00,39.3,29.6,29.82,WNW,292,5.0,10.0,68,0.00,,CLR,0.00,VWS V14.01,2013-03-01 01:48:00,
2013-02-28 20:53:00,39.2,29.2,29.82,West,266,4.0,10.0,67,0.00,,CLR,0.00,VWS V14.01,2013-03-01 01:53:00,
2013-02-28 20:58:00,39.1,29.5,29.82,WNW,300,4.0,10.0,68,0.00,,CLR,0.00,VWS V14.01,2013-03-01 01:58:00,
2013-02-28 21:00:00,39.1,29.1,29.82,WNW,283,5.0,10.0,67,0.00,,FEW044,0.00,VWS V14.01,2013-03-01 02:00:00,
2013-02-28 21:03:00,39.0,29.4,29.82,WNW,287,4.0,11.0,68,0.00,,BKN050,0.00,VWS V14.01,2013-03-01 02:03:00,
2013-02-28 21:08:00,39.0,29.4,29.83,WSW,255,6.0,11.0,68,0.00,,BKN050,0.00,VWS V14.01,2013-03-01 02:08:00,
2013-02-28 21:13:00,39.0,29.4,29.82,WNW,296,2.0,11.0,68,0.00,,BKN050,0.00,VWS V14.01,2013-03-01 02:13:00,
2013-02-28 21:18:00,38.9,29.2,29.82,NW,311,2.0,11.0,68,0.00,,BKN050,0.00,VWS V14.01,2013-03-01 02:18:00,
2013-02-28 21:23:00,38.9,29.2,29.82,WNW,294,7.0,11.0,68,0.00,,BKN050,0.00,VWS V14.01,2013-03-01 02:23:00,
2013-02-28 21:28:00,38.8,29.2,29.82,WSW,255,4.0,11.0,68,0.00,,BKN050,0.00,VWS V14.01,2013-03-01 02:28:00,
2013-02-28 21:30:00,38.8,29.2,29.82,WSW,240,3.0,11.0,68,0.00,,FEW044,0.00,VWS V14.01,2013-03-01 02:30:00,
2013-02-28 21:33:00,38.9,29.2,29.82,WSW,249,2.0,6.0,68,0.00,,BKN050,0.00,VWS V14.01,2013-03-01 02:33:00,
2013-02-28 21:38:00,38.9,29.2,29.83,West,263,4.0,6.0,68,0.00,,BKN050,0.00,VWS V14.01,2013-03-01 02:38:00,
2013-02-28 21:43:00,39.0,29.4,29.83,WSW,246,3.0,10.0,68,0.00,,BKN050,0.00,VWS V14.01,2013-03-01 02:43:00,
2013-02-28 21:48:00,39.0,29.0,29.82,SW,234,3.0,10.0,67,0.00,,BKN050,0.00,VWS V14.01,2013-03-01 02:48:00,
2013-02-28 21:53:00,38.9,29.2,29.82,West,273,3.0,10.0,68,0.00,,BKN050,0.00,VWS V14.01,2013-03-01 02:53:00,
2013-02-28 21:58:00,38.6,29.0,29.83,WNW,282,3.0,10.0,68,0.00,,BKN050,0.00,VWS V14.01,2013-03-01 02:58:00,
2013-02-28 22:00:00,38.6,29.0,29.83,West,267,3.0,10.0,68,0.00,,FEW044,0.00,VWS V14.01,2013-03-01 03:00:00,
2013-02-28 22:03:00,38.4,28.8,29.83,WNW,297,3.0,10.0,68,0.00,,OVC046,0.00,VWS V14.01,2013-03-01 03:03:00,
2013-02-28 22:08:00,38.4,29.1,29.82,WNW,284,4.0,10.0,69,0.00,,OVC046,0.00,VWS V14.01,2013-03-01 03:08:00,
2013-02-28 22:13:00,38.4,29.1,29.82,WNW,300,4.0,10.0,69,0.00,,OVC046,0.00,VWS V14.01,2013-03-01 03:13:00,
2013-02-28 22:18:00,38.4,28.8,29.82,WNW,292,3.0,10.0,68,0.00,,OVC046,0.00,VWS V14.01,2013-03-01 03:18:00,
2013-02-28 22:23:00,38.4,28.8,29.83,WNW,287,4.0,10.0,68,0.00,,OVC046,0.00,VWS V14.01,2013-03-01 03:23:00,
2013-02-28 22:28:00,38.5,28.5,29.83,WSW,251,2.0,10.0,67,0.00,,OVC046,0.00,VWS V14.01,2013-03-01 03:28:00,
2013-02-28 22:30:00,38.5,28.9,29.83,West,268,3.0,10.0,68,0.00,,FEW044,0.00,VWS V14.01,2013-03-01 03:30:00,
2013-02-28 22:33:00,38.5,28.5,29.83,WSW,245,4.0,6.0,67,0.00,,OVC046,0.00,VWS V14.01,2013-03-01 03:33:00,
2013-02-28 22:38:00,38.5,28.9,29.83,SSW,192,5.0,9.0,68,0.00,,OVC046,0.00,VWS V14.01,2013-03-01 03:38:00,
2013-02-28 22:43:00,38.5,28.5,29.83,SW,232,4.0,9.0,67,0.00,,OVC046,0.00,VWS V14.01,2013-03-01 03:43:00,
2013-02-28 22:48:00,38.5,28.9,29.83,SW,236,6.0,9.0,68,0.00,,OVC046,0.00,VWS V14.01,2013-03-01 03:48:00,
2013-02-28 22:53:00,38.6,28.6,29.83,WSW,248,6.0,9.0,67,0.00,,OVC046,0.00,VWS V14.01,2013-03-01 03:53:00,
2013-02-28 22:58:00,38.7,29.1,29.83,West,263,5.0,10.0,68,0.00,,OVC046,0.00,VWS V14.01,2013-03-01 03:58:00,
2013-02-28 23:00:00,38.7,29.1,29.83,West,273,7.0,10.0,68,0.00,,FEW044,0.00,VWS V14.01,2013-03-01 04:00:00,
2013-02-28 23:03:00,38.8,28.8,29.83,West,281,1.0,7.0,67,0.00,,FEW044,0.00,VWS V14.01,2013-03-01 04:03:00,
2013-02-28 23:08:00,38.8,28.8,29.83,WSW,252,3.0,7.0,67,0.00,,FEW044,0.00,VWS V14.01,2013-03-01 04:08:00,
2013-02-28 23:13:00,38.8,28.4,29.83,West,271,3.0,8.0,66,0.00,,FEW044,0.00,VWS V14.01,2013-03-01 04:13:00,
2013-02-28 23:18:00,38.9,28.5,29.83,WSW,252,4.0,9.0,66,0.00,,FEW044,0.00,VWS V14.01,2013-03-01 04:18:00,
2013-02-28 23:23:00,38.9,28.9,29.83,West,275,3.0,9.0,67,0.00,,FEW044,0.00,VWS V14.01,2013-03-01 04:23:00,
2013-02-28 23:28:00,39.0,29.0,29.83,West,269,5.0,9.0,67,0.00,,FEW044,0.00,VWS V14.01,2013-03-01 04:28:00,
2013-02-28 23:30:00,39.0,29.0,29.83,West,281,2.0,9.0,67,0.00,,FEW044,0.00,VWS V14.01,2013-03-01 04:30:00,
2013-02-28 23:33:00,39.0,29.0,29.83,West,263,2.0,5.0,67,0.00,,FEW044,0.00,VWS V14.01,2013-03-01 04:33:00,
2013-02-28 23:38:00,39.0,29.0,29.83,WNW,296,1.0,8.0,67,0.00,,FEW044,0.00,VWS V14.01,2013-03-01 04:38:00,
2013-02-28 23:43:00,39.0,28.6,29.82,West,261,0.0,8.0,66,0.00,,FEW044,0.00,VWS V14.01,2013-03-01 04:43:00,
2013-02-28 23:48:00,39.1,28.7,29.82,West,263,2.0,8.0,66,0.00,,FEW044,0.00,VWS V14.01,2013-03-01 04:48:00,
2013-02-28 23:53:00,39.2,28.8,29.82,West,263,4.0,8.0,66,0.00,,FEW044,0.00,VWS V14.01,2013-03-01 04:53:00,
2013-02-28 23:59:00,39.2,28.8,29.82,WNW,292,2.0,8.0,66,0.00,,FEW044,0.00,VWS V14.01,2013-03-01 04:59:00,